sensor_id;sensor_type;location;lat;lon;timestamp;P1;durP1;ratioP1;P2;durP2;ratioP2
55037;SDS011;40937;53.594;10.034;2023-02-15T00:01:09;88.78;;;59.65;;
55037;SDS011;40937;53.594;10.034;2023-02-15T00:03:39;88.22;;;57.08;;
55037;SDS011;40937;53.594;10.034;2023-02-15T00:06:06;97.32;;;58.13;;
55037;SDS011;40937;53.594;10.034;2023-02-15T00:08:33;112.50;;;60.53;;
55037;SDS011;40937;53.594;10.034;2023-02-15T00:11:04;118.05;;;63.05;;
55037;SDS011;40937;53.594;10.034;2023-02-15T00:13:32;104.88;;;59.42;;
55037;SDS011;40937;53.594;10.034;2023-02-15T00:16:01;122.75;;;63.97;;
55037;SDS011;40937;53.594;10.034;2023-02-15T00:18:29;107.78;;;61.70;;
55037;SDS011;40937;53.594;10.034;2023-02-15T00:20:58;118.75;;;64.20;;
55037;SDS011;40937;53.594;10.034;2023-02-15T00:23:29;128.10;;;62.80;;
55037;SDS011;40937;53.594;10.034;2023-02-15T00:26:04;128.20;;;60.97;;
55037;SDS011;40937;53.594;10.034;2023-02-15T00:28:32;109.15;;;61.60;;
55037;SDS011;40937;53.594;10.034;2023-02-15T00:31:03;114.55;;;64.68;;
55037;SDS011;40937;53.594;10.034;2023-02-15T00:33:34;104.13;;;62.65;;
55037;SDS011;40937;53.594;10.034;2023-02-15T00:36:03;118.43;;;64.15;;
55037;SDS011;40937;53.594;10.034;2023-02-15T00:38:31;107.32;;;64.40;;
55037;SDS011;40937;53.594;10.034;2023-02-15T00:41:00;108.93;;;64.85;;
55037;SDS011;40937;53.594;10.034;2023-02-15T00:43:29;116.97;;;63.60;;
55037;SDS011;40937;53.594;10.034;2023-02-15T00:45:57;116.95;;;63.75;;
55037;SDS011;40937;53.594;10.034;2023-02-15T00:48:25;104.22;;;60.55;;
55037;SDS011;40937;53.594;10.034;2023-02-15T00:50:53;106.95;;;62.00;;
55037;SDS011;40937;53.594;10.034;2023-02-15T00:53:23;114.55;;;63.88;;
55037;SDS011;40937;53.594;10.034;2023-02-15T00:55:51;96.68;;;63.40;;
55037;SDS011;40937;53.594;10.034;2023-02-15T00:58:19;116.63;;;62.28;;
55037;SDS011;40937;53.594;10.034;2023-02-15T01:00:47;119.68;;;63.53;;
55037;SDS011;40937;53.594;10.034;2023-02-15T01:03:16;111.10;;;62.85;;
55037;SDS011;40937;53.594;10.034;2023-02-15T01:05:44;120.55;;;62.88;;
55037;SDS011;40937;53.594;10.034;2023-02-15T01:08:11;107.03;;;60.65;;
55037;SDS011;40937;53.594;10.034;2023-02-15T01:10:40;97.70;;;60.83;;
55037;SDS011;40937;53.594;10.034;2023-02-15T01:13:08;100.88;;;59.35;;
55037;SDS011;40937;53.594;10.034;2023-02-15T01:15:35;85.65;;;58.50;;
55037;SDS011;40937;53.594;10.034;2023-02-15T01:18:03;105.55;;;61.90;;
55037;SDS011;40937;53.594;10.034;2023-02-15T01:20:33;111.57;;;59.38;;
55037;SDS011;40937;53.594;10.034;2023-02-15T01:23:03;100.47;;;58.92;;
55037;SDS011;40937;53.594;10.034;2023-02-15T01:25:30;107.35;;;59.33;;
55037;SDS011;40937;53.594;10.034;2023-02-15T01:28:00;102.50;;;62.83;;
55037;SDS011;40937;53.594;10.034;2023-02-15T01:30:28;122.90;;;61.67;;
55037;SDS011;40937;53.594;10.034;2023-02-15T01:32:56;103.57;;;61.78;;
55037;SDS011;40937;53.594;10.034;2023-02-15T01:35:23;112.13;;;61.75;;
55037;SDS011;40937;53.594;10.034;2023-02-15T01:37:51;121.35;;;64.07;;
55037;SDS011;40937;53.594;10.034;2023-02-15T01:40:19;117.38;;;65.93;;
55037;SDS011;40937;53.594;10.034;2023-02-15T01:42:49;104.70;;;61.20;;
55037;SDS011;40937;53.594;10.034;2023-02-15T01:45:22;116.10;;;62.22;;
55037;SDS011;40937;53.594;10.034;2023-02-15T01:47:52;113.68;;;62.15;;
55037;SDS011;40937;53.594;10.034;2023-02-15T01:50:24;122.85;;;62.10;;
55037;SDS011;40937;53.594;10.034;2023-02-15T01:52:56;101.22;;;62.05;;
55037;SDS011;40937;53.594;10.034;2023-02-15T01:55:29;104.28;;;62.25;;
55037;SDS011;40937;53.594;10.034;2023-02-15T01:58:00;106.30;;;61.30;;
55037;SDS011;40937;53.594;10.034;2023-02-15T02:00:30;105.47;;;62.65;;
55037;SDS011;40937;53.594;10.034;2023-02-15T02:02:59;101.32;;;60.25;;
55037;SDS011;40937;53.594;10.034;2023-02-15T02:05:28;116.55;;;60.88;;
55037;SDS011;40937;53.594;10.034;2023-02-15T02:07:56;111.38;;;61.00;;
55037;SDS011;40937;53.594;10.034;2023-02-15T02:10:26;89.40;;;58.10;;
55037;SDS011;40937;53.594;10.034;2023-02-15T02:12:57;103.70;;;62.53;;
55037;SDS011;40937;53.594;10.034;2023-02-15T02:15:28;108.63;;;61.08;;
55037;SDS011;40937;53.594;10.034;2023-02-15T02:18:08;107.88;;;60.47;;
55037;SDS011;40937;53.594;10.034;2023-02-15T02:24:05;92.75;;;57.20;;
55037;SDS011;40937;53.594;10.034;2023-02-15T02:26:56;107.38;;;58.45;;
55037;SDS011;40937;53.594;10.034;2023-02-15T02:29:53;115.63;;;62.25;;
55037;SDS011;40937;53.594;10.034;2023-02-15T02:35:36;116.32;;;61.35;;
55037;SDS011;40937;53.594;10.034;2023-02-15T02:38:10;104.25;;;59.28;;
55037;SDS011;40937;53.594;10.034;2023-02-15T02:40:44;101.78;;;60.00;;
55037;SDS011;40937;53.594;10.034;2023-02-15T02:43:20;96.35;;;58.95;;
55037;SDS011;40937;53.594;10.034;2023-02-15T02:45:55;107.82;;;59.33;;
55037;SDS011;40937;53.594;10.034;2023-02-15T02:48:26;97.70;;;60.17;;
55037;SDS011;40937;53.594;10.034;2023-02-15T02:50:56;108.95;;;59.90;;
55037;SDS011;40937;53.594;10.034;2023-02-15T02:53:23;115.20;;;62.20;;
55037;SDS011;40937;53.594;10.034;2023-02-15T02:55:51;95.03;;;60.20;;
55037;SDS011;40937;53.594;10.034;2023-02-15T02:58:21;120.55;;;59.35;;
55037;SDS011;40937;53.594;10.034;2023-02-15T03:00:53;92.45;;;58.67;;
55037;SDS011;40937;53.594;10.034;2023-02-15T03:03:24;90.68;;;57.47;;
55037;SDS011;40937;53.594;10.034;2023-02-15T03:05:55;86.83;;;59.13;;
55037;SDS011;40937;53.594;10.034;2023-02-15T03:08:27;105.82;;;58.50;;
55037;SDS011;40937;53.594;10.034;2023-02-15T03:11:02;96.22;;;58.17;;
55037;SDS011;40937;53.594;10.034;2023-02-15T03:13:30;96.18;;;58.50;;
55037;SDS011;40937;53.594;10.034;2023-02-15T03:16:00;82.28;;;55.85;;
55037;SDS011;40937;53.594;10.034;2023-02-15T03:18:48;94.32;;;57.58;;
55037;SDS011;40937;53.594;10.034;2023-02-15T03:21:24;100.38;;;57.80;;
55037;SDS011;40937;53.594;10.034;2023-02-15T03:23:58;92.00;;;59.92;;
55037;SDS011;40937;53.594;10.034;2023-02-15T03:26:31;98.60;;;59.67;;
55037;SDS011;40937;53.594;10.034;2023-02-15T03:29:01;92.70;;;57.75;;
55037;SDS011;40937;53.594;10.034;2023-02-15T03:31:31;100.47;;;57.97;;
55037;SDS011;40937;53.594;10.034;2023-02-15T03:34:04;100.13;;;59.78;;
55037;SDS011;40937;53.594;10.034;2023-02-15T03:36:36;94.90;;;58.75;;
55037;SDS011;40937;53.594;10.034;2023-02-15T03:39:11;109.18;;;60.50;;
55037;SDS011;40937;53.594;10.034;2023-02-15T03:41:45;96.50;;;58.15;;
55037;SDS011;40937;53.594;10.034;2023-02-15T03:44:17;104.65;;;58.55;;
55037;SDS011;40937;53.594;10.034;2023-02-15T03:46:50;102.78;;;59.40;;
55037;SDS011;40937;53.594;10.034;2023-02-15T03:49:24;95.75;;;59.00;;
55037;SDS011;40937;53.594;10.034;2023-02-15T03:51:57;105.55;;;59.38;;
55037;SDS011;40937;53.594;10.034;2023-02-15T03:54:27;90.97;;;58.40;;
55037;SDS011;40937;53.594;10.034;2023-02-15T03:57:12;89.30;;;57.70;;
55037;SDS011;40937;53.594;10.034;2023-02-15T04:00:02;76.95;;;53.53;;
55037;SDS011;40937;53.594;10.034;2023-02-15T04:02:54;79.47;;;54.58;;
55037;SDS011;40937;53.594;10.034;2023-02-15T04:05:32;92.00;;;55.38;;
55037;SDS011;40937;53.594;10.034;2023-02-15T04:07:59;74.40;;;53.45;;
55037;SDS011;40937;53.594;10.034;2023-02-15T04:10:26;85.28;;;55.17;;
55037;SDS011;40937;53.594;10.034;2023-02-15T04:13:11;78.55;;;53.58;;
55037;SDS011;40937;53.594;10.034;2023-02-15T04:15:38;73.53;;;51.22;;
55037;SDS011;40937;53.594;10.034;2023-02-15T04:18:23;70.13;;;50.72;;
55037;SDS011;40937;53.594;10.034;2023-02-15T04:21:08;70.65;;;51.08;;
55037;SDS011;40937;53.594;10.034;2023-02-15T04:23:53;76.00;;;51.40;;
55037;SDS011;40937;53.594;10.034;2023-02-15T04:26:38;85.95;;;55.25;;
55037;SDS011;40937;53.594;10.034;2023-02-15T04:29:05;84.68;;;53.40;;
55037;SDS011;40937;53.594;10.034;2023-02-15T04:31:32;71.03;;;50.45;;
55037;SDS011;40937;53.594;10.034;2023-02-15T04:33:59;67.47;;;49.85;;
55037;SDS011;40937;53.594;10.034;2023-02-15T04:36:28;74.50;;;50.70;;
55037;SDS011;40937;53.594;10.034;2023-02-15T04:39:05;73.50;;;53.08;;
55037;SDS011;40937;53.594;10.034;2023-02-15T04:41:42;81.25;;;53.55;;
55037;SDS011;40937;53.594;10.034;2023-02-15T04:44:10;79.63;;;55.88;;
55037;SDS011;40937;53.594;10.034;2023-02-15T04:46:37;77.35;;;52.67;;
55037;SDS011;40937;53.594;10.034;2023-02-15T04:49:04;69.13;;;48.90;;
55037;SDS011;40937;53.594;10.034;2023-02-15T04:51:33;68.65;;;49.70;;
55037;SDS011;40937;53.594;10.034;2023-02-15T04:54:00;62.53;;;48.20;;
55037;SDS011;40937;53.594;10.034;2023-02-15T04:56:27;73.85;;;50.22;;
55037;SDS011;40937;53.594;10.034;2023-02-15T04:58:55;71.90;;;51.72;;
55037;SDS011;40937;53.594;10.034;2023-02-15T05:01:22;85.45;;;52.58;;
55037;SDS011;40937;53.594;10.034;2023-02-15T05:03:49;60.30;;;49.28;;
55037;SDS011;40937;53.594;10.034;2023-02-15T05:06:17;68.05;;;51.28;;
55037;SDS011;40937;53.594;10.034;2023-02-15T05:08:45;63.67;;;49.35;;
55037;SDS011;40937;53.594;10.034;2023-02-15T05:11:12;61.30;;;49.65;;
55037;SDS011;40937;53.594;10.034;2023-02-15T05:13:40;62.65;;;48.33;;
55037;SDS011;40937;53.594;10.034;2023-02-15T05:16:07;69.15;;;49.47;;
55037;SDS011;40937;53.594;10.034;2023-02-15T05:18:34;69.00;;;48.60;;
55037;SDS011;40937;53.594;10.034;2023-02-15T05:21:04;72.20;;;48.03;;
55037;SDS011;40937;53.594;10.034;2023-02-15T05:23:31;64.97;;;50.70;;
55037;SDS011;40937;53.594;10.034;2023-02-15T05:26:00;62.17;;;46.58;;
55037;SDS011;40937;53.594;10.034;2023-02-15T05:28:44;66.53;;;47.75;;
55037;SDS011;40937;53.594;10.034;2023-02-15T05:31:12;65.20;;;51.58;;
55037;SDS011;40937;53.594;10.034;2023-02-15T05:33:40;64.38;;;49.90;;
55037;SDS011;40937;53.594;10.034;2023-02-15T05:36:08;66.32;;;48.67;;
55037;SDS011;40937;53.594;10.034;2023-02-15T05:38:36;63.40;;;48.47;;
55037;SDS011;40937;53.594;10.034;2023-02-15T05:41:05;62.78;;;48.47;;
55037;SDS011;40937;53.594;10.034;2023-02-15T05:43:33;59.35;;;48.33;;
55037;SDS011;40937;53.594;10.034;2023-02-15T05:46:00;64.03;;;47.17;;
55037;SDS011;40937;53.594;10.034;2023-02-15T05:48:28;66.00;;;48.55;;
55037;SDS011;40937;53.594;10.034;2023-02-15T05:50:58;68.90;;;50.00;;
55037;SDS011;40937;53.594;10.034;2023-02-15T05:53:27;74.30;;;50.30;;
55037;SDS011;40937;53.594;10.034;2023-02-15T05:55:56;76.80;;;50.38;;
55037;SDS011;40937;53.594;10.034;2023-02-15T05:58:26;69.13;;;49.45;;
55037;SDS011;40937;53.594;10.034;2023-02-15T06:00:55;80.32;;;46.25;;
55037;SDS011;40937;53.594;10.034;2023-02-15T06:03:22;58.53;;;45.75;;
55037;SDS011;40937;53.594;10.034;2023-02-15T06:05:51;58.85;;;45.58;;
55037;SDS011;40937;53.594;10.034;2023-02-15T06:08:18;58.10;;;46.00;;
55037;SDS011;40937;53.594;10.034;2023-02-15T06:10:46;58.95;;;45.50;;
55037;SDS011;40937;53.594;10.034;2023-02-15T06:13:13;62.00;;;46.97;;
55037;SDS011;40937;53.594;10.034;2023-02-15T06:15:42;63.38;;;47.13;;
55037;SDS011;40937;53.594;10.034;2023-02-15T06:18:09;66.68;;;46.90;;
55037;SDS011;40937;53.594;10.034;2023-02-15T06:20:36;64.57;;;49.03;;
55037;SDS011;40937;53.594;10.034;2023-02-15T06:23:03;65.53;;;47.30;;
55037;SDS011;40937;53.594;10.034;2023-02-15T06:25:30;63.70;;;43.97;;
55037;SDS011;40937;53.594;10.034;2023-02-15T06:27:57;63.72;;;46.67;;
55037;SDS011;40937;53.594;10.034;2023-02-15T06:30:25;62.90;;;47.97;;
55037;SDS011;40937;53.594;10.034;2023-02-15T06:32:53;65.35;;;46.90;;
55037;SDS011;40937;53.594;10.034;2023-02-15T06:35:20;65.25;;;48.15;;
55037;SDS011;40937;53.594;10.034;2023-02-15T06:37:48;65.88;;;46.97;;
55037;SDS011;40937;53.594;10.034;2023-02-15T06:40:15;66.00;;;46.50;;
55037;SDS011;40937;53.594;10.034;2023-02-15T06:42:43;66.30;;;47.35;;
55037;SDS011;40937;53.594;10.034;2023-02-15T06:45:11;57.22;;;45.20;;
55037;SDS011;40937;53.594;10.034;2023-02-15T06:47:38;65.47;;;45.95;;
55037;SDS011;40937;53.594;10.034;2023-02-15T06:50:07;76.38;;;49.25;;
55037;SDS011;40937;53.594;10.034;2023-02-15T06:52:36;57.85;;;46.90;;
55037;SDS011;40937;53.594;10.034;2023-02-15T06:55:03;60.78;;;46.90;;
55037;SDS011;40937;53.594;10.034;2023-02-15T06:57:30;61.55;;;47.78;;
55037;SDS011;40937;53.594;10.034;2023-02-15T06:59:58;69.53;;;46.75;;
55037;SDS011;40937;53.594;10.034;2023-02-15T07:02:26;56.45;;;43.17;;
55037;SDS011;40937;53.594;10.034;2023-02-15T07:04:53;62.97;;;45.90;;
55037;SDS011;40937;53.594;10.034;2023-02-15T07:07:21;61.40;;;46.97;;
55037;SDS011;40937;53.594;10.034;2023-02-15T07:09:49;74.35;;;47.33;;
55037;SDS011;40937;53.594;10.034;2023-02-15T07:12:16;64.03;;;45.88;;
55037;SDS011;40937;53.594;10.034;2023-02-15T07:15:01;60.90;;;45.83;;
55037;SDS011;40937;53.594;10.034;2023-02-15T07:17:30;60.55;;;45.42;;
55037;SDS011;40937;53.594;10.034;2023-02-15T07:19:57;61.30;;;47.97;;
55037;SDS011;40937;53.594;10.034;2023-02-15T07:22:25;59.75;;;44.15;;
55037;SDS011;40937;53.594;10.034;2023-02-15T07:24:53;69.75;;;46.65;;
55037;SDS011;40937;53.594;10.034;2023-02-15T07:27:21;57.95;;;45.83;;
55037;SDS011;40937;53.594;10.034;2023-02-15T07:29:48;61.25;;;46.47;;
55037;SDS011;40937;53.594;10.034;2023-02-15T07:32:15;60.92;;;49.03;;
55037;SDS011;40937;53.594;10.034;2023-02-15T07:34:42;63.90;;;45.53;;
55037;SDS011;40937;53.594;10.034;2023-02-15T07:37:10;60.03;;;44.47;;
55037;SDS011;40937;53.594;10.034;2023-02-15T07:39:38;55.70;;;45.75;;
55037;SDS011;40937;53.594;10.034;2023-02-15T07:42:05;53.65;;;42.92;;
55037;SDS011;40937;53.594;10.034;2023-02-15T07:44:33;52.78;;;43.20;;
55037;SDS011;40937;53.594;10.034;2023-02-15T07:47:00;59.75;;;47.17;;
55037;SDS011;40937;53.594;10.034;2023-02-15T07:49:27;61.78;;;45.10;;
55037;SDS011;40937;53.594;10.034;2023-02-15T07:51:54;66.07;;;49.90;;
55037;SDS011;40937;53.594;10.034;2023-02-15T07:54:21;60.50;;;49.00;;
55037;SDS011;40937;53.594;10.034;2023-02-15T07:56:50;67.07;;;48.88;;
55037;SDS011;40937;53.594;10.034;2023-02-15T07:59:17;59.97;;;49.47;;
55037;SDS011;40937;53.594;10.034;2023-02-15T08:01:44;60.92;;;46.75;;
55037;SDS011;40937;53.594;10.034;2023-02-15T08:04:12;58.67;;;46.25;;
55037;SDS011;40937;53.594;10.034;2023-02-15T08:06:39;61.97;;;47.83;;
55037;SDS011;40937;53.594;10.034;2023-02-15T08:09:07;67.68;;;48.47;;
55037;SDS011;40937;53.594;10.034;2023-02-15T08:11:36;69.15;;;49.25;;
55037;SDS011;40937;53.594;10.034;2023-02-15T08:14:07;61.60;;;48.53;;
55037;SDS011;40937;53.594;10.034;2023-02-15T08:16:36;65.53;;;48.03;;
55037;SDS011;40937;53.594;10.034;2023-02-15T08:19:05;58.15;;;47.05;;
55037;SDS011;40937;53.594;10.034;2023-02-15T08:21:34;71.65;;;48.55;;
55037;SDS011;40937;53.594;10.034;2023-02-15T08:24:02;68.55;;;48.67;;
55037;SDS011;40937;53.594;10.034;2023-02-15T08:26:30;71.32;;;49.47;;
55037;SDS011;40937;53.594;10.034;2023-02-15T08:28:58;70.88;;;49.30;;
55037;SDS011;40937;53.594;10.034;2023-02-15T08:31:28;72.00;;;50.20;;
55037;SDS011;40937;53.594;10.034;2023-02-15T08:33:56;71.55;;;48.00;;
55037;SDS011;40937;53.594;10.034;2023-02-15T08:36:24;62.50;;;47.88;;
55037;SDS011;40937;53.594;10.034;2023-02-15T08:38:54;69.38;;;47.50;;
55037;SDS011;40937;53.594;10.034;2023-02-15T08:41:24;61.20;;;47.72;;
55037;SDS011;40937;53.594;10.034;2023-02-15T08:43:53;65.50;;;48.78;;
55037;SDS011;40937;53.594;10.034;2023-02-15T08:46:21;62.15;;;46.15;;
55037;SDS011;40937;53.594;10.034;2023-02-15T08:48:51;63.67;;;48.38;;
55037;SDS011;40937;53.594;10.034;2023-02-15T08:51:20;69.53;;;51.38;;
55037;SDS011;40937;53.594;10.034;2023-02-15T08:53:48;90.38;;;49.75;;
55037;SDS011;40937;53.594;10.034;2023-02-15T08:56:17;60.50;;;47.90;;
55037;SDS011;40937;53.594;10.034;2023-02-15T08:58:46;58.55;;;46.50;;
55037;SDS011;40937;53.594;10.034;2023-02-15T09:01:14;56.60;;;45.28;;
55037;SDS011;40937;53.594;10.034;2023-02-15T09:03:44;61.25;;;48.08;;
55037;SDS011;40937;53.594;10.034;2023-02-15T09:06:13;65.38;;;48.90;;
55037;SDS011;40937;53.594;10.034;2023-02-15T09:08:41;76.20;;;51.28;;
55037;SDS011;40937;53.594;10.034;2023-02-15T09:11:08;63.95;;;47.47;;
55037;SDS011;40937;53.594;10.034;2023-02-15T09:13:37;64.18;;;47.95;;
55037;SDS011;40937;53.594;10.034;2023-02-15T09:16:07;78.75;;;47.47;;
55037;SDS011;40937;53.594;10.034;2023-02-15T09:18:36;69.45;;;47.63;;
55037;SDS011;40937;53.594;10.034;2023-02-15T09:21:06;57.35;;;47.42;;
55037;SDS011;40937;53.594;10.034;2023-02-15T09:23:36;64.82;;;46.22;;
55037;SDS011;40937;53.594;10.034;2023-02-15T09:26:04;65.97;;;48.53;;
55037;SDS011;40937;53.594;10.034;2023-02-15T09:28:32;62.33;;;47.58;;
55037;SDS011;40937;53.594;10.034;2023-02-15T09:31:07;62.13;;;46.63;;
55037;SDS011;40937;53.594;10.034;2023-02-15T09:33:35;62.40;;;49.38;;
55037;SDS011;40937;53.594;10.034;2023-02-15T09:36:03;62.25;;;48.05;;
55037;SDS011;40937;53.594;10.034;2023-02-15T09:38:31;58.83;;;48.25;;
55037;SDS011;40937;53.594;10.034;2023-02-15T09:41:03;60.47;;;48.25;;
55037;SDS011;40937;53.594;10.034;2023-02-15T09:43:42;59.27;;;49.13;;
55037;SDS011;40937;53.594;10.034;2023-02-15T09:46:22;63.83;;;49.20;;
55037;SDS011;40937;53.594;10.034;2023-02-15T09:49:01;57.42;;;45.00;;
55037;SDS011;40937;53.594;10.034;2023-02-15T09:51:40;64.47;;;48.85;;
55037;SDS011;40937;53.594;10.034;2023-02-15T09:54:33;61.65;;;49.45;;
55037;SDS011;40937;53.594;10.034;2023-02-15T09:57:15;70.15;;;47.92;;
55037;SDS011;40937;53.594;10.034;2023-02-15T09:59:52;67.68;;;50.33;;
55037;SDS011;40937;53.594;10.034;2023-02-15T10:02:27;67.18;;;50.95;;
55037;SDS011;40937;53.594;10.034;2023-02-15T10:05:08;74.53;;;53.08;;
55037;SDS011;40937;53.594;10.034;2023-02-15T10:07:50;68.18;;;50.08;;
55037;SDS011;40937;53.594;10.034;2023-02-15T10:10:35;60.38;;;46.65;;
55037;SDS011;40937;53.594;10.034;2023-02-15T10:13:13;65.88;;;46.20;;
55037;SDS011;40937;53.594;10.034;2023-02-15T10:15:53;68.63;;;47.17;;
55037;SDS011;40937;53.594;10.034;2023-02-15T10:18:31;63.10;;;49.33;;
55037;SDS011;40937;53.594;10.034;2023-02-15T10:21:11;62.78;;;48.00;;
55037;SDS011;40937;53.594;10.034;2023-02-15T10:23:51;59.45;;;47.38;;
55037;SDS011;40937;53.594;10.034;2023-02-15T10:26:33;67.40;;;49.17;;
55037;SDS011;40937;53.594;10.034;2023-02-15T10:29:09;57.55;;;48.03;;
55037;SDS011;40937;53.594;10.034;2023-02-15T10:31:45;51.53;;;44.33;;
55037;SDS011;40937;53.594;10.034;2023-02-15T10:34:17;64.82;;;47.53;;
55037;SDS011;40937;53.594;10.034;2023-02-15T10:36:53;55.83;;;48.50;;
55037;SDS011;40937;53.594;10.034;2023-02-15T10:39:33;66.82;;;48.08;;
55037;SDS011;40937;53.594;10.034;2023-02-15T10:42:11;57.15;;;46.92;;
55037;SDS011;40937;53.594;10.034;2023-02-15T10:44:52;60.28;;;49.20;;
55037;SDS011;40937;53.594;10.034;2023-02-15T10:47:34;64.78;;;47.50;;
55037;SDS011;40937;53.594;10.034;2023-02-15T10:50:15;66.03;;;49.75;;
55037;SDS011;40937;53.594;10.034;2023-02-15T10:52:51;72.57;;;51.53;;
55037;SDS011;40937;53.594;10.034;2023-02-15T10:55:33;60.83;;;49.10;;
55037;SDS011;40937;53.594;10.034;2023-02-15T10:58:11;53.50;;;47.55;;
55037;SDS011;40937;53.594;10.034;2023-02-15T11:00:46;54.63;;;47.65;;
55037;SDS011;40937;53.594;10.034;2023-02-15T11:03:27;60.33;;;46.97;;
55037;SDS011;40937;53.594;10.034;2023-02-15T11:06:04;66.65;;;48.08;;
55037;SDS011;40937;53.594;10.034;2023-02-15T11:08:36;70.38;;;48.90;;
55037;SDS011;40937;53.594;10.034;2023-02-15T11:11:07;59.35;;;48.25;;
55037;SDS011;40937;53.594;10.034;2023-02-15T11:13:38;66.57;;;48.72;;
55037;SDS011;40937;53.594;10.034;2023-02-15T11:16:15;58.97;;;48.05;;
55037;SDS011;40937;53.594;10.034;2023-02-15T11:18:48;61.03;;;48.50;;
55037;SDS011;40937;53.594;10.034;2023-02-15T11:21:20;62.60;;;49.28;;
55037;SDS011;40937;53.594;10.034;2023-02-15T11:23:51;63.97;;;49.58;;
55037;SDS011;40937;53.594;10.034;2023-02-15T11:26:26;67.30;;;49.72;;
55037;SDS011;40937;53.594;10.034;2023-02-15T11:29:05;54.85;;;48.20;;
55037;SDS011;40937;53.594;10.034;2023-02-15T11:31:45;55.63;;;48.63;;
55037;SDS011;40937;53.594;10.034;2023-02-15T11:34:16;52.97;;;47.47;;
55037;SDS011;40937;53.594;10.034;2023-02-15T11:36:47;67.38;;;53.40;;
55037;SDS011;40937;53.594;10.034;2023-02-15T11:39:18;57.70;;;49.75;;
55037;SDS011;40937;53.594;10.034;2023-02-15T11:41:47;63.03;;;52.22;;
55037;SDS011;40937;53.594;10.034;2023-02-15T11:44:20;58.90;;;51.63;;
55037;SDS011;40937;53.594;10.034;2023-02-15T11:46:51;62.45;;;51.38;;
55037;SDS011;40937;53.594;10.034;2023-02-15T11:49:21;66.68;;;50.65;;
55037;SDS011;40937;53.594;10.034;2023-02-15T11:51:50;56.13;;;49.60;;
55037;SDS011;40937;53.594;10.034;2023-02-15T11:54:19;61.97;;;49.00;;
55037;SDS011;40937;53.594;10.034;2023-02-15T11:56:50;69.35;;;49.22;;
55037;SDS011;40937;53.594;10.034;2023-02-15T11:59:18;54.40;;;47.63;;
55037;SDS011;40937;53.594;10.034;2023-02-15T12:01:53;61.70;;;47.00;;
55037;SDS011;40937;53.594;10.034;2023-02-15T12:04:20;56.72;;;46.95;;
55037;SDS011;40937;53.594;10.034;2023-02-15T12:06:54;61.85;;;48.20;;
55037;SDS011;40937;53.594;10.034;2023-02-15T12:09:27;55.10;;;46.67;;
55037;SDS011;40937;53.594;10.034;2023-02-15T12:14:52;55.63;;;48.13;;
55037;SDS011;40937;53.594;10.034;2023-02-15T12:17:24;54.33;;;48.47;;
55037;SDS011;40937;53.594;10.034;2023-02-15T12:19:55;57.05;;;46.97;;
55037;SDS011;40937;53.594;10.034;2023-02-15T12:22:25;61.00;;;50.05;;
55037;SDS011;40937;53.594;10.034;2023-02-15T12:24:56;55.90;;;48.75;;
55037;SDS011;40937;53.594;10.034;2023-02-15T12:27:28;57.17;;;47.88;;
55037;SDS011;40937;53.594;10.034;2023-02-15T12:29:59;57.38;;;46.63;;
55037;SDS011;40937;53.594;10.034;2023-02-15T12:32:35;56.42;;;44.50;;
55037;SDS011;40937;53.594;10.034;2023-02-15T12:35:15;58.35;;;45.38;;
55037;SDS011;40937;53.594;10.034;2023-02-15T12:37:58;55.20;;;45.45;;
55037;SDS011;40937;53.594;10.034;2023-02-15T12:40:32;48.17;;;43.05;;
55037;SDS011;40937;53.594;10.034;2023-02-15T12:43:01;60.10;;;46.55;;
55037;SDS011;40937;53.594;10.034;2023-02-15T12:45:34;54.15;;;45.75;;
55037;SDS011;40937;53.594;10.034;2023-02-15T12:48:15;52.10;;;43.55;;
55037;SDS011;40937;53.594;10.034;2023-02-15T12:50:46;48.60;;;42.38;;
55037;SDS011;40937;53.594;10.034;2023-02-15T12:53:15;46.13;;;41.22;;
55037;SDS011;40937;53.594;10.034;2023-02-15T12:55:50;50.15;;;43.10;;
55037;SDS011;40937;53.594;10.034;2023-02-15T12:58:21;53.60;;;43.88;;
55037;SDS011;40937;53.594;10.034;2023-02-15T13:03:53;46.85;;;41.83;;
55037;SDS011;40937;53.594;10.034;2023-02-15T13:06:24;48.53;;;43.33;;
55037;SDS011;40937;53.594;10.034;2023-02-15T13:08:54;48.05;;;43.15;;
55037;SDS011;40937;53.594;10.034;2023-02-15T13:11:25;51.53;;;41.17;;
55037;SDS011;40937;53.594;10.034;2023-02-15T13:14:01;44.33;;;39.75;;
55037;SDS011;40937;53.594;10.034;2023-02-15T13:16:30;47.22;;;42.33;;
55037;SDS011;40937;53.594;10.034;2023-02-15T13:19:04;45.80;;;40.95;;
55037;SDS011;40937;53.594;10.034;2023-02-15T13:21:39;46.78;;;41.85;;
55037;SDS011;40937;53.594;10.034;2023-02-15T13:24:13;45.13;;;40.45;;
55037;SDS011;40937;53.594;10.034;2023-02-15T13:26:46;44.40;;;39.63;;
55037;SDS011;40937;53.594;10.034;2023-02-15T13:29:16;46.15;;;41.22;;
55037;SDS011;40937;53.594;10.034;2023-02-15T13:31:45;48.80;;;41.05;;
55037;SDS011;40937;53.594;10.034;2023-02-15T13:34:17;50.60;;;41.78;;
55037;SDS011;40937;53.594;10.034;2023-02-15T13:36:54;47.33;;;42.33;;
55037;SDS011;40937;53.594;10.034;2023-02-15T13:39:30;46.38;;;41.70;;
55037;SDS011;40937;53.594;10.034;2023-02-15T13:42:05;46.67;;;42.13;;
55037;SDS011;40937;53.594;10.034;2023-02-15T13:47:41;44.67;;;39.80;;
55037;SDS011;40937;53.594;10.034;2023-02-15T13:50:23;45.42;;;40.55;;
55037;SDS011;40937;53.594;10.034;2023-02-15T13:53:10;53.78;;;42.47;;
55037;SDS011;40937;53.594;10.034;2023-02-15T13:55:47;45.22;;;40.63;;
55037;SDS011;40937;53.594;10.034;2023-02-15T13:58:36;46.63;;;40.95;;
55037;SDS011;40937;53.594;10.034;2023-02-15T14:01:18;44.22;;;39.55;;
55037;SDS011;40937;53.594;10.034;2023-02-15T14:04:01;47.45;;;42.55;;
55037;SDS011;40937;53.594;10.034;2023-02-15T14:09:36;44.90;;;40.22;;
55037;SDS011;40937;53.594;10.034;2023-02-15T14:12:16;44.17;;;39.38;;
55037;SDS011;40937;53.594;10.034;2023-02-15T14:20:20;40.65;;;36.28;;
55037;SDS011;40937;53.594;10.034;2023-02-15T14:22:55;36.00;;;32.50;;
55037;SDS011;40937;53.594;10.034;2023-02-15T14:25:33;37.70;;;34.00;;
55037;SDS011;40937;53.594;10.034;2023-02-15T14:28:05;38.10;;;34.45;;
55037;SDS011;40937;53.594;10.034;2023-02-15T14:30:37;38.88;;;34.78;;
55037;SDS011;40937;53.594;10.034;2023-02-15T14:33:07;38.83;;;33.42;;
55037;SDS011;40937;53.594;10.034;2023-02-15T14:35:35;37.10;;;33.45;;
55037;SDS011;40937;53.594;10.034;2023-02-15T14:38:07;38.88;;;34.45;;
55037;SDS011;40937;53.594;10.034;2023-02-15T14:40:45;38.13;;;34.33;;
55037;SDS011;40937;53.594;10.034;2023-02-15T14:43:31;36.25;;;32.60;;
55037;SDS011;40937;53.594;10.034;2023-02-15T14:46:09;48.35;;;31.52;;
55037;SDS011;40937;53.594;10.034;2023-02-15T14:48:44;34.63;;;30.95;;
55037;SDS011;40937;53.594;10.034;2023-02-15T14:57:24;32.00;;;28.80;;
55037;SDS011;40937;53.594;10.034;2023-02-15T14:59:59;33.03;;;29.83;;
55037;SDS011;40937;53.594;10.034;2023-02-15T15:05:11;33.25;;;29.67;;